sensor_id;sensor_type;location;lat;lon;timestamp;pressure;altitude;pressure_sealevel;temperature;humidity
68994;BME280;56054;50.968;5.816;2023-04-09T07:31:46;101618.28;;;8.83;100.00
68994;BME280;56054;50.968;5.816;2023-04-09T07:34:46;101623.06;;;8.98;100.00
68994;BME280;56054;50.968;5.816;2023-04-09T07:37:46;101627.97;;;9.16;100.00
68994;BME280;56054;50.968;5.816;2023-04-09T07:40:47;101627.38;;;9.51;100.00
68994;BME280;56054;50.968;5.816;2023-04-09T07:43:47;101620.56;;;9.63;100.00
68994;BME280;56054;50.968;5.816;2023-04-09T07:46:48;101615.84;;;9.79;100.00
68994;BME280;56054;50.968;5.816;2023-04-09T07:49:48;101614.72;;;9.65;100.00
68994;BME280;56054;50.968;5.816;2023-04-09T07:52:49;101618.50;;;9.69;100.00
68994;BME280;56054;50.968;5.816;2023-04-09T07:55:50;101620.13;;;9.79;100.00
68994;BME280;56054;50.968;5.816;2023-04-09T07:58:50;101625.06;;;10.08;100.00
68994;BME280;56054;50.968;5.816;2023-04-09T08:01:51;101621.66;;;10.41;100.00
68994;BME280;56054;50.968;5.816;2023-04-09T08:04:51;101625.00;;;10.40;100.00
68994;BME280;56054;50.968;5.816;2023-04-09T08:07:51;101625.06;;;10.52;100.00
68994;BME280;56054;50.968;5.816;2023-04-09T08:10:52;101623.56;;;10.78;100.00
68994;BME280;56054;50.968;5.816;2023-04-09T08:13:53;101631.22;;;11.10;100.00
68994;BME280;56054;50.968;5.816;2023-04-09T08:16:54;101628.19;;;11.27;100.00
68994;BME280;56054;50.968;5.816;2023-04-09T08:19:54;101623.53;;;11.35;100.00
68994;BME280;56054;50.968;5.816;2023-04-09T08:22:55;101628.41;;;11.30;100.00
68994;BME280;56054;50.968;5.816;2023-04-09T08:25:55;101629.53;;;11.22;100.00
68994;BME280;56054;50.968;5.816;2023-04-09T08:28:56;101625.09;;;11.21;100.00
68994;BME280;56054;50.968;5.816;2023-04-09T08:31:56;101631.09;;;11.08;100.00
68994;BME280;56054;50.968;5.816;2023-04-09T08:34:57;101621.16;;;11.14;100.00
68994;BME280;56054;50.968;5.816;2023-04-09T08:37:58;101625.78;;;11.30;100.00
68994;BME280;56054;50.968;5.816;2023-04-09T08:40:58;101620.03;;;11.34;100.00
68994;BME280;56054;50.968;5.816;2023-04-09T08:43:59;101618.88;;;11.43;100.00
68994;BME280;56054;50.968;5.816;2023-04-09T08:47:00;101624.09;;;11.54;99.79
68994;BME280;56054;50.968;5.816;2023-04-09T08:50:00;101614.59;;;11.67;97.99
68994;BME280;56054;50.968;5.816;2023-04-09T08:53:02;101617.72;;;11.86;97.42
68994;BME280;56054;50.968;5.816;2023-04-09T08:56:02;101600.56;;;11.88;97.45
68994;BME280;56054;50.968;5.816;2023-04-09T08:59:03;101609.81;;;11.96;97.14
68994;BME280;56054;50.968;5.816;2023-04-09T09:02:08;101611.56;;;12.09;96.17
68994;BME280;56054;50.968;5.816;2023-04-09T09:05:09;101606.19;;;11.94;94.86
68994;BME280;56054;50.968;5.816;2023-04-09T09:08:21;101601.84;;;12.07;95.29
68994;BME280;56054;50.968;5.816;2023-04-09T09:11:25;101592.00;;;12.14;95.67
68994;BME280;56054;50.968;5.816;2023-04-09T09:14:25;101599.81;;;12.14;92.93
68994;BME280;56054;50.968;5.816;2023-04-09T09:17:26;101602.41;;;12.39;92.65
68994;BME280;56054;50.968;5.816;2023-04-09T09:20:26;101606.13;;;12.68;91.18
68994;BME280;56054;50.968;5.816;2023-04-09T09:23:36;101593.56;;;12.37;89.92
68994;BME280;56054;50.968;5.816;2023-04-09T09:26:37;101596.91;;;12.73;90.68
68994;BME280;56054;50.968;5.816;2023-04-09T09:29:40;101598.66;;;12.99;88.94
68994;BME280;56054;50.968;5.816;2023-04-09T09:32:41;101594.97;;;13.22;87.46
68994;BME280;56054;50.968;5.816;2023-04-09T09:35:52;101594.41;;;13.53;86.43
68994;BME280;56054;50.968;5.816;2023-04-09T09:38:55;101596.63;;;13.47;85.81
68994;BME280;56054;50.968;5.816;2023-04-09T09:42:06;101597.03;;;13.40;80.50
68994;BME280;56054;50.968;5.816;2023-04-09T09:45:16;101587.56;;;13.55;80.96
68994;BME280;56054;50.968;5.816;2023-04-09T09:48:17;101591.72;;;13.52;82.04
68994;BME280;56054;50.968;5.816;2023-04-09T09:51:18;101585.09;;;13.30;83.37
68994;BME280;56054;50.968;5.816;2023-04-09T09:54:22;101582.34;;;13.28;87.80
68994;BME280;56054;50.968;5.816;2023-04-09T09:57:26;101582.66;;;13.60;88.95
68994;BME280;56054;50.968;5.816;2023-04-09T10:00:31;101580.34;;;13.38;86.90
68994;BME280;56054;50.968;5.816;2023-04-09T10:03:33;101565.91;;;13.30;87.97
68994;BME280;56054;50.968;5.816;2023-04-09T10:06:34;101572.13;;;13.32;89.16
68994;BME280;56054;50.968;5.816;2023-04-09T10:09:37;101576.25;;;13.28;90.19
68994;BME280;56054;50.968;5.816;2023-04-09T10:12:39;101576.34;;;13.43;89.19
68994;BME280;56054;50.968;5.816;2023-04-09T10:15:40;101574.09;;;13.09;87.48
68994;BME280;56054;50.968;5.816;2023-04-09T10:18:41;101574.50;;;13.15;89.93
68994;BME280;56054;50.968;5.816;2023-04-09T10:21:56;101575.41;;;13.16;89.79
68994;BME280;56054;50.968;5.816;2023-04-09T10:24:58;101572.69;;;13.01;90.77
68994;BME280;56054;50.968;5.816;2023-04-09T10:28:02;101577.06;;;12.89;85.37
68994;BME280;56054;50.968;5.816;2023-04-09T10:31:13;101573.09;;;13.07;88.12
68994;BME280;56054;50.968;5.816;2023-04-09T10:34:15;101563.16;;;13.15;88.88
68994;BME280;56054;50.968;5.816;2023-04-09T10:37:21;101560.06;;;13.34;87.73
68994;BME280;56054;50.968;5.816;2023-04-09T10:40:22;101558.06;;;13.43;87.08
68994;BME280;56054;50.968;5.816;2023-04-09T10:43:22;101558.28;;;13.33;86.32
68994;BME280;56054;50.968;5.816;2023-04-09T10:46:34;101551.84;;;13.27;85.76
68994;BME280;56054;50.968;5.816;2023-04-09T10:49:35;101546.41;;;12.98;84.40
68994;BME280;56054;50.968;5.816;2023-04-09T10:52:39;101550.59;;;12.96;85.05
68994;BME280;56054;50.968;5.816;2023-04-09T10:55:40;101536.47;;;13.05;84.36
68994;BME280;56054;50.968;5.816;2023-04-09T10:58:41;101545.59;;;13.25;84.97
68994;BME280;56054;50.968;5.816;2023-04-09T11:01:51;101541.06;;;13.23;84.40
68994;BME280;56054;50.968;5.816;2023-04-09T11:08:09;101531.75;;;13.13;83.25
68994;BME280;56054;50.968;5.816;2023-04-09T11:11:10;101536.97;;;13.13;84.07
68994;BME280;56054;50.968;5.816;2023-04-09T11:14:18;101533.44;;;13.13;84.62
68994;BME280;56054;50.968;5.816;2023-04-09T11:17:18;101532.53;;;13.25;85.14
68994;BME280;56054;50.968;5.816;2023-04-09T11:20:20;101523.22;;;13.16;83.56
68994;BME280;56054;50.968;5.816;2023-04-09T11:23:21;101527.31;;;13.25;84.37
68994;BME280;56054;50.968;5.816;2023-04-09T11:26:34;101515.69;;;13.34;83.12
68994;BME280;56054;50.968;5.816;2023-04-09T11:29:35;101519.31;;;13.36;82.85
68994;BME280;56054;50.968;5.816;2023-04-09T11:32:35;101519.38;;;13.24;81.71
68994;BME280;56054;50.968;5.816;2023-04-09T11:35:36;101517.31;;;13.32;81.46
68994;BME280;56054;50.968;5.816;2023-04-09T11:38:36;101519.22;;;13.34;83.20
68994;BME280;56054;50.968;5.816;2023-04-09T11:41:37;101512.59;;;13.39;83.20
68994;BME280;56054;50.968;5.816;2023-04-09T11:44:38;101506.97;;;13.33;82.73
68994;BME280;56054;50.968;5.816;2023-04-09T11:47:40;101506.66;;;13.42;83.29
68994;BME280;56054;50.968;5.816;2023-04-09T11:50:41;101509.34;;;13.43;82.79
68994;BME280;56054;50.968;5.816;2023-04-09T11:53:42;101505.06;;;13.44;82.90
68994;BME280;56054;50.968;5.816;2023-04-09T11:56:42;101506.66;;;13.83;80.54
68994;BME280;56054;50.968;5.816;2023-04-09T11:59:43;101501.38;;;13.97;78.96
68994;BME280;56054;50.968;5.816;2023-04-09T12:02:45;101503.53;;;14.32;75.98
68994;BME280;56054;50.968;5.816;2023-04-09T12:05:46;101500.69;;;14.57;75.28
68994;BME280;56054;50.968;5.816;2023-04-09T12:08:46;101504.56;;;14.79;72.56
68994;BME280;56054;50.968;5.816;2023-04-09T12:11:47;101504.13;;;14.71;71.75
68994;BME280;56054;50.968;5.816;2023-04-09T12:14:47;101505.50;;;14.36;71.93
68994;BME280;56054;50.968;5.816;2023-04-09T12:17:54;101509.97;;;14.09;73.31
68994;BME280;56054;50.968;5.816;2023-04-09T12:20:54;101506.91;;;14.16;73.42
68994;BME280;56054;50.968;5.816;2023-04-09T12:23:55;101505.84;;;14.12;71.71
68994;BME280;56054;50.968;5.816;2023-04-09T12:26:55;101509.25;;;14.11;72.52
68994;BME280;56054;50.968;5.816;2023-04-09T12:29:56;101506.03;;;14.16;72.18
68994;BME280;56054;50.968;5.816;2023-04-09T12:32:56;101507.63;;;14.13;70.82
68994;BME280;56054;50.968;5.816;2023-04-09T12:35:57;101506.03;;;14.16;71.27
68994;BME280;56054;50.968;5.816;2023-04-09T12:38:57;101501.19;;;14.22;68.98
68994;BME280;56054;50.968;5.816;2023-04-09T12:41:58;101504.22;;;14.15;68.50
68994;BME280;56054;50.968;5.816;2023-04-09T12:44:58;101497.91;;;14.11;68.06
68994;BME280;56054;50.968;5.816;2023-04-09T12:47:59;101488.56;;;14.29;68.68
68994;BME280;56054;50.968;5.816;2023-04-09T12:50:59;101497.31;;;14.45;66.90
68994;BME280;56054;50.968;5.816;2023-04-09T12:54:00;101499.19;;;15.07;66.72
68994;BME280;56054;50.968;5.816;2023-04-09T12:57:00;101484.03;;;15.16;66.63
68994;BME280;56054;50.968;5.816;2023-04-09T13:00:00;101480.66;;;15.50;59.76
68994;BME280;56054;50.968;5.816;2023-04-09T13:03:01;101484.19;;;15.81;59.44
68994;BME280;56054;50.968;5.816;2023-04-09T13:06:01;101476.75;;;15.58;57.66
68994;BME280;56054;50.968;5.816;2023-04-09T13:09:02;101479.72;;;15.64;58.50
68994;BME280;56054;50.968;5.816;2023-04-09T13:12:02;101480.22;;;16.22;57.11
68994;BME280;56054;50.968;5.816;2023-04-09T13:15:03;101475.28;;;16.29;55.32
68994;BME280;56054;50.968;5.816;2023-04-09T13:18:04;101474.84;;;16.54;54.39
68994;BME280;56054;50.968;5.816;2023-04-09T13:21:04;101468.44;;;17.01;56.63
68994;BME280;56054;50.968;5.816;2023-04-09T13:24:05;101472.59;;;16.61;52.48
68994;BME280;56054;50.968;5.816;2023-04-09T13:27:06;101473.19;;;16.56;50.94
68994;BME280;56054;50.968;5.816;2023-04-09T13:30:07;101466.09;;;16.02;54.52
68994;BME280;56054;50.968;5.816;2023-04-09T13:33:07;101454.50;;;16.50;53.50
68994;BME280;56054;50.968;5.816;2023-04-09T13:36:08;101449.38;;;16.35;53.26
68994;BME280;56054;50.968;5.816;2023-04-09T13:39:08;101448.47;;;16.68;54.14
68994;BME280;56054;50.968;5.816;2023-04-09T13:42:08;101457.25;;;16.35;52.99
68994;BME280;56054;50.968;5.816;2023-04-09T13:45:09;101446.63;;;16.50;53.09
68994;BME280;56054;50.968;5.816;2023-04-09T13:48:09;101450.56;;;16.76;52.55
68994;BME280;56054;50.968;5.816;2023-04-09T13:51:10;101451.00;;;15.98;52.64
68994;BME280;56054;50.968;5.816;2023-04-09T13:54:10;101447.28;;;16.11;53.86
68994;BME280;56054;50.968;5.816;2023-04-09T13:57:11;101443.38;;;16.03;53.85
68994;BME280;56054;50.968;5.816;2023-04-09T14:00:12;101441.72;;;16.74;52.03
68994;BME280;56054;50.968;5.816;2023-04-09T14:03:12;101445.75;;;15.98;52.96
68994;BME280;56054;50.968;5.816;2023-04-09T14:06:13;101448.91;;;15.60;54.41
68994;BME280;56054;50.968;5.816;2023-04-09T14:09:13;101442.88;;;15.77;54.67
68994;BME280;56054;50.968;5.816;2023-04-09T14:12:14;101439.84;;;15.53;54.75
68994;BME280;56054;50.968;5.816;2023-04-09T14:15:14;101425.19;;;15.57;54.27
68994;BME280;56054;50.968;5.816;2023-04-09T14:18:14;101437.44;;;15.41;54.76
68994;BME280;56054;50.968;5.816;2023-04-09T14:24:24;101422.00;;;15.46;55.38
68994;BME280;56054;50.968;5.816;2023-04-09T14:27:24;101420.28;;;15.47;54.97
68994;BME280;56054;50.968;5.816;2023-04-09T14:30:24;101419.66;;;15.19;54.37
68994;BME280;56054;50.968;5.816;2023-04-09T14:33:53;101411.06;;;15.22;54.95
68994;BME280;56054;50.968;5.816;2023-04-09T14:36:53;101412.97;;;15.25;57.05
68994;BME280;56054;50.968;5.816;2023-04-09T14:39:53;101414.38;;;15.03;56.54
68994;BME280;56054;50.968;5.816;2023-04-09T14:42:54;101398.19;;;14.79;56.26
68994;BME280;56054;50.968;5.816;2023-04-09T14:45:54;101400.22;;;14.99;55.10
68994;BME280;56054;50.968;5.816;2023-04-09T14:48:55;101409.00;;;15.00;54.31
68994;BME280;56054;50.968;5.816;2023-04-09T14:51:55;101408.19;;;14.86;54.96
68994;BME280;56054;50.968;5.816;2023-04-09T14:54:55;101406.91;;;14.94;55.55
68994;BME280;56054;50.968;5.816;2023-04-09T14:57:57;101403.28;;;14.76;56.45
68994;BME280;56054;50.968;5.816;2023-04-09T15:00:58;101395.84;;;15.31;54.32
68994;BME280;56054;50.968;5.816;2023-04-09T15:03:58;101395.13;;;15.50;54.46
68994;BME280;56054;50.968;5.816;2023-04-09T15:06:58;101401.03;;;15.46;53.68
68994;BME280;56054;50.968;5.816;2023-04-09T15:09:59;101393.06;;;15.28;53.46
68994;BME280;56054;50.968;5.816;2023-04-09T15:12:59;101397.09;;;15.38;52.96
68994;BME280;56054;50.968;5.816;2023-04-09T15:16:00;101390.53;;;15.62;53.13
68994;BME280;56054;50.968;5.816;2023-04-09T15:19:00;101381.63;;;15.92;53.45
68994;BME280;56054;50.968;5.816;2023-04-09T15:22:00;101389.69;;;15.78;52.35
68994;BME280;56054;50.968;5.816;2023-04-09T15:25:01;101382.03;;;15.50;52.33
68994;BME280;56054;50.968;5.816;2023-04-09T15:28:02;101387.03;;;15.29;53.80
68994;BME280;56054;50.968;5.816;2023-04-09T15:31:02;101384.59;;;15.49;53.12
68994;BME280;56054;50.968;5.816;2023-04-09T15:34:03;101390.31;;;15.41;52.72
68994;BME280;56054;50.968;5.816;2023-04-09T15:37:03;101374.13;;;15.49;52.29
68994;BME280;56054;50.968;5.816;2023-04-09T15:40:04;101362.88;;;15.68;52.11
68994;BME280;56054;50.968;5.816;2023-04-09T15:43:04;101361.16;;;15.84;52.49
68994;BME280;56054;50.968;5.816;2023-04-09T15:46:08;101363.03;;;15.87;52.03
68994;BME280;56054;50.968;5.816;2023-04-09T15:49:09;101363.22;;;15.90;52.58
68994;BME280;56054;50.968;5.816;2023-04-09T15:52:09;101357.00;;;15.39;53.60
68994;BME280;56054;50.968;5.816;2023-04-09T15:55:10;101355.28;;;15.39;52.32
68994;BME280;56054;50.968;5.816;2023-04-09T15:58:10;101342.69;;;15.32;52.63
68994;BME280;56054;50.968;5.816;2023-04-09T16:01:11;101347.00;;;15.48;52.39
68994;BME280;56054;50.968;5.816;2023-04-09T16:04:11;101348.81;;;15.33;53.36
68994;BME280;56054;50.968;5.816;2023-04-09T16:07:15;101350.53;;;15.16;54.53
68994;BME280;56054;50.968;5.816;2023-04-09T16:10:16;101350.19;;;15.43;53.75
68994;BME280;56054;50.968;5.816;2023-04-09T16:13:17;101336.28;;;15.60;53.38
68994;BME280;56054;50.968;5.816;2023-04-09T16:16:18;101336.84;;;15.38;52.86
68994;BME280;56054;50.968;5.816;2023-04-09T16:19:18;101351.50;;;15.67;53.40
68994;BME280;56054;50.968;5.816;2023-04-09T16:22:19;101357.63;;;15.68;53.40
68994;BME280;56054;50.968;5.816;2023-04-09T16:25:19;101354.03;;;15.82;52.54
68994;BME280;56054;50.968;5.816;2023-04-09T16:28:20;101346.94;;;15.63;53.68
68994;BME280;56054;50.968;5.816;2023-04-09T16:31:20;101348.06;;;15.52;53.62
68994;BME280;56054;50.968;5.816;2023-04-09T16:34:21;101348.22;;;15.38;53.30
68994;BME280;56054;50.968;5.816;2023-04-09T16:37:21;101344.66;;;15.36;52.50
68994;BME280;56054;50.968;5.816;2023-04-09T16:40:21;101339.56;;;15.39;53.97
68994;BME280;56054;50.968;5.816;2023-04-09T16:43:23;101344.31;;;15.47;53.66
68994;BME280;56054;50.968;5.816;2023-04-09T16:46:24;101348.81;;;15.33;53.65
68994;BME280;56054;50.968;5.816;2023-04-09T16:49:24;101356.66;;;15.33;54.32
68994;BME280;56054;50.968;5.816;2023-04-09T16:52:25;101344.66;;;15.36;54.38
68994;BME280;56054;50.968;5.816;2023-04-09T16:55:25;101341.13;;;15.19;55.02
68994;BME280;56054;50.968;5.816;2023-04-09T16:58:25;101342.81;;;15.19;55.28
68994;BME280;56054;50.968;5.816;2023-04-09T17:01:26;101343.16;;;15.25;55.39
68994;BME280;56054;50.968;5.816;2023-04-09T17:04:26;101333.81;;;15.14;55.65
68994;BME280;56054;50.968;5.816;2023-04-09T17:07:47;101335.72;;;15.00;55.99
68994;BME280;56054;50.968;5.816;2023-04-09T17:10:48;101335.94;;;14.88;55.62
68994;BME280;56054;50.968;5.816;2023-04-09T17:13:49;101336.31;;;14.80;55.91
68994;BME280;56054;50.968;5.816;2023-04-09T17:16:49;101329.34;;;14.80;56.34
68994;BME280;56054;50.968;5.816;2023-04-09T17:19:49;101320.66;;;14.65;56.38
68994;BME280;56054;50.968;5.816;2023-04-09T17:22:50;101316.88;;;14.60;56.36
68994;BME280;56054;50.968;5.816;2023-04-09T17:25:50;101321.56;;;14.65;56.87
68994;BME280;56054;50.968;5.816;2023-04-09T17:28:51;101324.56;;;14.57;56.98
68994;BME280;56054;50.968;5.816;2023-04-09T17:31:51;101326.06;;;14.53;57.34
68994;BME280;56054;50.968;5.816;2023-04-09T17:34:52;101326.78;;;14.50;57.33
68994;BME280;56054;50.968;5.816;2023-04-09T17:37:52;101323.03;;;14.45;57.63
68994;BME280;56054;50.968;5.816;2023-04-09T17:40:53;101312.13;;;14.38;57.38
68994;BME280;56054;50.968;5.816;2023-04-09T17:43:53;101317.09;;;14.33;57.76
68994;BME280;56054;50.968;5.816;2023-04-09T17:46:54;101326.38;;;14.28;58.44
68994;BME280;56054;50.968;5.816;2023-04-09T17:49:54;101324.22;;;14.21;58.16
68994;BME280;56054;50.968;5.816;2023-04-09T17:52:54;101318.28;;;14.08;58.09
68994;BME280;56054;50.968;5.816;2023-04-09T17:55:55;101317.41;;;14.08;58.23
68994;BME280;56054;50.968;5.816;2023-04-09T17:58:55;101327.13;;;13.96;57.74
68994;BME280;56054;50.968;5.816;2023-04-09T18:01:56;101325.06;;;13.90;57.92
68994;BME280;56054;50.968;5.816;2023-04-09T18:05:00;101321.25;;;13.85;57.62
68994;BME280;56054;50.968;5.816;2023-04-09T18:08:00;101324.53;;;13.81;58.24
68994;BME280;56054;50.968;5.816;2023-04-09T18:11:01;101322.19;;;13.70;58.23
68994;BME280;56054;50.968;5.816;2023-04-09T18:14:01;101328.72;;;13.64;58.88
68994;BME280;56054;50.968;5.816;2023-04-09T18:17:01;101330.25;;;13.60;58.50
68994;BME280;56054;50.968;5.816;2023-04-09T18:20:02;101317.63;;;13.53;59.04
68994;BME280;56054;50.968;5.816;2023-04-09T18:23:02;101319.72;;;13.44;58.64
68994;BME280;56054;50.968;5.816;2023-04-09T18:26:03;101318.72;;;13.42;58.71
68994;BME280;56054;50.968;5.816;2023-04-09T18:29:03;101329.16;;;13.42;58.07
68994;BME280;56054;50.968;5.816;2023-04-09T18:32:04;101337.47;;;13.36;58.95
68994;BME280;56054;50.968;5.816;2023-04-09T18:35:05;101321.97;;;13.24;59.18
68994;BME280;56054;50.968;5.816;2023-04-09T18:38:05;101322.69;;;13.22;60.07
68994;BME280;56054;50.968;5.816;2023-04-09T18:41:05;101336.22;;;13.16;59.68
68994;BME280;56054;50.968;5.816;2023-04-09T18:44:06;101335.84;;;13.10;60.66
68994;BME280;56054;50.968;5.816;2023-04-09T18:47:07;101334.03;;;13.09;59.93
68994;BME280;56054;50.968;5.816;2023-04-09T18:50:07;101333.84;;;13.06;60.49
68994;BME280;56054;50.968;5.816;2023-04-09T18:53:08;101331.06;;;12.90;60.45
68994;BME280;56054;50.968;5.816;2023-04-09T18:56:08;101339.13;;;12.93;60.88
68994;BME280;56054;50.968;5.816;2023-04-09T18:59:11;101332.00;;;12.90;60.73
68994;BME280;56054;50.968;5.816;2023-04-09T19:02:12;101336.50;;;12.79;61.37
68994;BME280;56054;50.968;5.816;2023-04-09T19:05:13;101331.41;;;12.81;61.17
68994;BME280;56054;50.968;5.816;2023-04-09T19:08:13;101333.19;;;12.82;61.44
68994;BME280;56054;50.968;5.816;2023-04-09T19:11:13;101326.50;;;12.72;61.56
68994;BME280;56054;50.968;5.816;2023-04-09T19:14:14;101327.31;;;12.71;62.35
68994;BME280;56054;50.968;5.816;2023-04-09T19:17:14;101341.66;;;12.78;63.43
68994;BME280;56054;50.968;5.816;2023-04-09T19:20:15;101339.47;;;12.71;62.66
68994;BME280;56054;50.968;5.816;2023-04-09T19:23:15;101351.31;;;12.66;64.80
68994;BME280;56054;50.968;5.816;2023-04-09T19:26:16;101345.78;;;12.21;64.82
68994;BME280;56054;50.968;5.816;2023-04-09T19:29:16;101342.38;;;12.22;63.59
68994;BME280;56054;50.968;5.816;2023-04-09T19:32:17;101338.34;;;12.14;63.88
68994;BME280;56054;50.968;5.816;2023-04-09T19:35:17;101350.59;;;12.15;64.55
68994;BME280;56054;50.968;5.816;2023-04-09T19:38:18;101347.59;;;12.22;64.81
68994;BME280;56054;50.968;5.816;2023-04-09T19:41:18;101347.94;;;12.02;65.04
68994;BME280;56054;50.968;5.816;2023-04-09T19:44:19;101359.41;;;12.17;65.48
68994;BME280;56054;50.968;5.816;2023-04-09T19:47:19;101356.78;;;12.04;66.64
68994;BME280;56054;50.968;5.816;2023-04-09T19:50:19;101352.19;;;12.13;67.24
68994;BME280;56054;50.968;5.816;2023-04-09T19:53:20;101350.78;;;12.05;66.88
68994;BME280;56054;50.968;5.816;2023-04-09T19:56:20;101353.59;;;12.21;69.22
68994;BME280;56054;50.968;5.816;2023-04-09T19:59:20;101345.38;;;12.15;69.23
68994;BME280;56054;50.968;5.816;2023-04-09T20:02:21;101342.47;;;12.10;69.01
68994;BME280;56054;50.968;5.816;2023-04-09T20:05:21;101341.44;;;11.95;69.08
68994;BME280;56054;50.968;5.816;2023-04-09T20:08:22;101344.34;;;11.99;71.28
68994;BME280;56054;50.968;5.816;2023-04-09T20:11:22;101339.63;;;11.94;72.98
68994;BME280;56054;50.968;5.816;2023-04-09T20:14:22;101346.03;;;11.99;71.63
68994;BME280;56054;50.968;5.816;2023-04-09T20:17:23;101337.78;;;11.54;71.69
68994;BME280;56054;50.968;5.816;2023-04-09T20:20:24;101337.75;;;11.79;71.61
68994;BME280;56054;50.968;5.816;2023-04-09T20:23:25;101338.72;;;11.93;73.82
68994;BME280;56054;50.968;5.816;2023-04-09T20:26:25;101333.69;;;11.83;74.76
68994;BME280;56054;50.968;5.816;2023-04-09T20:29:25;101330.25;;;11.71;73.68
68994;BME280;56054;50.968;5.816;2023-04-09T20:32:26;101335.81;;;11.64;73.95
68994;BME280;56054;50.968;5.816;2023-04-09T20:35:26;101339.13;;;11.61;73.12
68994;BME280;56054;50.968;5.816;2023-04-09T20:38:27;101339.88;;;11.47;72.36
68994;BME280;56054;50.968;5.816;2023-04-09T20:41:27;101343.66;;;11.02;74.09
68994;BME280;56054;50.968;5.816;2023-04-09T20:44:30;101340.94;;;11.12;73.49
68994;BME280;56054;50.968;5.816;2023-04-09T20:47:31;101339.28;;;11.26;73.05
68994;BME280;56054;50.968;5.816;2023-04-09T20:50:31;101336.25;;;11.20;73.45
68994;BME280;56054;50.968;5.816;2023-04-09T20:53:32;101333.31;;;10.90;75.17
68994;BME280;56054;50.968;5.816;2023-04-09T20:56:35;101331.47;;;10.89;74.27
68994;BME280;56054;50.968;5.816;2023-04-09T20:59:35;101339.28;;;10.89;74.64
68994;BME280;56054;50.968;5.816;2023-04-09T21:02:37;101329.69;;;10.88;74.60
68994;BME280;56054;50.968;5.816;2023-04-09T21:05:37;101327.28;;;10.91;74.04
68994;BME280;56054;50.968;5.816;2023-04-09T21:08:38;101328.72;;;10.99;73.82
68994;BME280;56054;50.968;5.816;2023-04-09T21:11:38;101312.53;;;10.78;73.58
68994;BME280;56054;50.968;5.816;2023-04-09T21:14:39;101325.06;;;10.72;73.68
68994;BME280;56054;50.968;5.816;2023-04-09T21:17:39;101315.91;;;10.65;74.13
68994;BME280;56054;50.968;5.816;2023-04-09T21:20:45;101316.38;;;10.60;74.62
68994;BME280;56054;50.968;5.816;2023-04-09T21:23:45;101318.50;;;10.65;74.03
68994;BME280;56054;50.968;5.816;2023-04-09T21:26:46;101315.91;;;10.65;74.38
68994;BME280;56054;50.968;5.816;2023-04-09T21:29:46;101320.69;;;10.59;74.51
68994;BME280;56054;50.968;5.816;2023-04-09T21:32:47;101323.03;;;10.68;74.71
68994;BME280;56054;50.968;5.816;2023-04-09T21:35:51;101329.25;;;10.58;75.47
68994;BME280;56054;50.968;5.816;2023-04-09T21:38:52;101326.03;;;10.49;75.70
68994;BME280;56054;50.968;5.816;2023-04-09T21:41:55;101330.19;;;10.59;74.77
68994;BME280;56054;50.968;5.816;2023-04-09T21:44:56;101322.94;;;10.55;73.15
68994;BME280;56054;50.968;5.816;2023-04-09T21:47:56;101332.66;;;10.57;73.86
68994;BME280;56054;50.968;5.816;2023-04-09T21:50:57;101322.06;;;10.54;73.32
68994;BME280;56054;50.968;5.816;2023-04-09T21:54:07;101335.50;;;10.37;73.23
68994;BME280;56054;50.968;5.816;2023-04-09T21:57:09;101337.88;;;10.45;72.88
68994;BME280;56054;50.968;5.816;2023-04-09T22:00:10;101336.28;;;10.47;73.58
68994;BME280;56054;50.968;5.816;2023-04-09T22:06:53;101344.53;;;10.42;73.56
